createdAt,value
2023-05-14T00:02:00.689Z,19.00
2023-05-14T00:04:46.385Z,19.00
2023-05-14T00:07:32.624Z,19.00
2023-05-14T00:10:22.024Z,18.90
2023-05-14T00:13:07.974Z,18.90
2023-05-14T00:15:53.759Z,18.90
2023-05-14T00:18:41.014Z,18.90
2023-05-14T00:21:26.756Z,18.90
2023-05-14T00:24:12.571Z,18.90
2023-05-14T00:26:58.097Z,18.80
2023-05-14T00:29:43.611Z,18.80
2023-05-14T00:32:29.407Z,18.80
2023-05-14T00:35:15.961Z,18.80
2023-05-14T00:38:04.133Z,18.80
2023-05-14T00:40:52.114Z,18.80
2023-05-14T00:43:40.000Z,18.70
2023-05-14T00:46:26.510Z,18.70
2023-05-14T00:49:12.618Z,18.70
2023-05-14T00:52:00.699Z,18.70
2023-05-14T00:54:48.265Z,18.60
2023-05-14T00:57:37.949Z,18.60
2023-05-14T01:00:26.204Z,18.60
2023-05-14T01:03:12.409Z,18.60
2023-05-14T01:06:29.876Z,18.60
2023-05-14T01:09:55.956Z,18.50
2023-05-14T01:13:10.844Z,18.50
2023-05-14T01:15:58.579Z,18.60
2023-05-14T01:18:46.689Z,18.60
2023-05-14T01:21:43.527Z,18.60
2023-05-14T01:24:29.080Z,18.60
2023-05-14T01:28:00.575Z,18.60
2023-05-14T01:30:52.971Z,18.60
2023-05-14T01:33:43.600Z,18.60
2023-05-14T01:36:30.007Z,18.70
2023-05-14T01:39:19.814Z,18.70
2023-05-14T01:42:09.055Z,18.70
2023-05-14T01:44:57.388Z,18.70
2023-05-14T01:47:43.748Z,18.70
2023-05-14T01:50:29.617Z,18.70
2023-05-14T01:53:15.380Z,18.70
2023-05-14T01:56:03.776Z,18.70
2023-05-14T01:58:50.338Z,18.70
2023-05-14T02:01:36.348Z,18.80
2023-05-14T02:04:22.417Z,18.70
2023-05-14T02:07:08.648Z,18.70
2023-05-14T02:09:55.055Z,18.80
2023-05-14T02:12:41.617Z,18.80
2023-05-14T02:15:27.565Z,18.80
2023-05-14T02:18:13.616Z,18.80
2023-05-14T02:20:59.421Z,18.80
2023-05-14T02:23:45.575Z,18.80
2023-05-14T02:26:31.237Z,18.70
2023-05-14T02:29:17.660Z,18.70
2023-05-14T02:32:04.186Z,18.70
2023-05-14T02:34:50.124Z,18.80
2023-05-14T02:37:38.684Z,18.70
2023-05-14T02:40:24.967Z,18.70
2023-05-14T02:43:14.764Z,18.70
2023-05-14T02:46:01.576Z,18.70
2023-05-14T02:48:47.331Z,18.70
2023-05-14T02:51:33.146Z,18.70
2023-05-14T02:54:18.623Z,18.70
2023-05-14T02:57:05.522Z,18.70
2023-05-14T02:59:51.745Z,18.70
2023-05-14T03:02:38.915Z,18.70
2023-05-14T03:05:25.767Z,18.70
2023-05-14T03:08:11.803Z,18.70
2023-05-14T03:10:58.853Z,18.70
2023-05-14T03:13:44.745Z,18.70
2023-05-14T03:16:30.900Z,18.70
2023-05-14T03:19:17.836Z,18.70
2023-05-14T03:22:04.376Z,18.60
2023-05-14T03:24:49.774Z,18.60
2023-05-14T03:27:35.353Z,18.60
2023-05-14T03:30:23.041Z,18.60
2023-05-14T03:33:08.818Z,18.60
2023-05-14T03:35:55.812Z,18.60
2023-05-14T03:38:43.052Z,18.60
2023-05-14T03:41:28.787Z,18.60
2023-05-14T03:44:15.151Z,18.70
2023-05-14T03:47:01.239Z,18.70
2023-05-14T03:49:47.532Z,18.70
2023-05-14T03:52:34.118Z,18.70
2023-05-14T03:55:22.286Z,18.70
2023-05-14T03:58:13.650Z,18.70
2023-05-14T04:01:00.505Z,18.70
2023-05-14T04:03:46.585Z,18.70
2023-05-14T04:06:36.238Z,18.70
2023-05-14T04:09:22.325Z,18.70
2023-05-14T04:12:08.976Z,18.70
2023-05-14T04:14:55.020Z,18.70
2023-05-14T04:17:40.448Z,18.70
2023-05-14T04:20:26.467Z,18.70
2023-05-14T04:23:12.766Z,18.70
2023-05-14T04:25:59.178Z,18.70
2023-05-14T04:28:47.376Z,18.70
2023-05-14T04:31:34.179Z,18.70
2023-05-14T04:34:19.960Z,18.70
2023-05-14T04:37:05.536Z,18.70
2023-05-14T04:39:51.465Z,18.70
2023-05-14T04:42:38.865Z,18.70
2023-05-14T04:45:24.752Z,18.70
2023-05-14T04:48:10.607Z,18.70
2023-05-14T04:50:56.704Z,18.70
2023-05-14T04:53:43.487Z,18.70
2023-05-14T04:56:28.998Z,18.70
2023-05-14T04:59:14.675Z,18.70
2023-05-14T05:02:00.403Z,18.70
2023-05-14T05:04:47.413Z,18.70
2023-05-14T05:07:33.119Z,18.70
2023-05-14T05:10:19.442Z,18.70
2023-05-14T05:13:06.201Z,18.70
2023-05-14T05:15:53.006Z,18.70
2023-05-14T05:18:39.299Z,18.70
2023-05-14T05:21:24.951Z,18.60
2023-05-14T05:24:10.732Z,18.60
2023-05-14T05:26:56.631Z,18.60
2023-05-14T05:29:45.024Z,18.60
2023-05-14T05:32:31.346Z,18.60
2023-05-14T05:35:19.888Z,18.60
2023-05-14T05:38:07.263Z,18.70
2023-05-14T05:40:53.128Z,18.70
2023-05-14T05:43:39.473Z,18.70
2023-05-14T05:46:25.455Z,18.70
2023-05-14T05:49:11.574Z,18.70
2023-05-14T05:51:57.546Z,18.80
2023-05-14T05:54:43.096Z,18.80
2023-05-14T05:57:28.717Z,18.80
2023-05-14T06:00:15.379Z,18.80
2023-05-14T06:03:01.611Z,18.80
2023-05-14T06:05:50.090Z,18.80
2023-05-14T06:08:36.804Z,18.90
2023-05-14T06:11:25.665Z,18.90
2023-05-14T06:14:12.725Z,18.90
2023-05-14T06:17:00.530Z,18.90
2023-05-14T06:19:46.697Z,18.90
2023-05-14T06:22:33.196Z,18.90
2023-05-14T06:25:22.166Z,18.90
2023-05-14T06:28:08.021Z,18.90
2023-05-14T06:30:56.673Z,18.90
2023-05-14T06:33:45.629Z,18.90
2023-05-14T06:36:31.496Z,18.90
2023-05-14T06:39:17.091Z,18.90
2023-05-14T06:42:02.663Z,18.90
2023-05-14T06:44:49.648Z,18.90
2023-05-14T06:47:35.446Z,19.00
2023-05-14T06:50:21.676Z,19.00
2023-05-14T06:53:07.455Z,19.00
2023-05-14T06:55:52.985Z,19.00
2023-05-14T06:58:38.752Z,19.00
2023-05-14T07:01:24.344Z,18.90
2023-05-14T07:04:10.174Z,18.90
2023-05-14T07:06:56.297Z,18.90
2023-05-14T07:09:42.830Z,18.90
2023-05-14T07:12:29.426Z,18.90
2023-05-14T07:15:16.205Z,19.00
2023-05-14T07:18:02.295Z,19.00
2023-05-14T07:20:48.066Z,18.90
2023-05-14T07:23:41.737Z,18.90
2023-05-14T07:26:27.801Z,18.90
2023-05-14T07:29:13.845Z,18.90
2023-05-14T07:31:59.852Z,19.00
2023-05-14T07:34:46.471Z,19.00
2023-05-14T07:37:33.459Z,19.00
2023-05-14T07:40:19.461Z,19.00
2023-05-14T07:43:05.120Z,19.00
2023-05-14T07:45:56.072Z,19.10
2023-05-14T07:48:42.061Z,19.10
2023-05-14T07:51:28.591Z,19.10
2023-05-14T07:54:14.516Z,19.20
2023-05-14T07:57:00.445Z,19.20
2023-05-14T07:59:46.614Z,19.20
2023-05-14T08:02:35.247Z,19.20
2023-05-14T08:05:22.407Z,19.20
2023-05-14T08:08:08.231Z,19.20
2023-05-14T08:10:54.523Z,19.10
2023-05-14T08:13:40.776Z,19.20
2023-05-14T08:16:26.841Z,19.20
2023-05-14T08:19:14.535Z,19.20
2023-05-14T08:22:00.581Z,19.20
2023-05-14T08:24:46.987Z,19.30
2023-05-14T08:27:33.431Z,19.30
2023-05-14T08:30:19.584Z,19.20
2023-05-14T08:33:07.035Z,19.20
2023-05-14T08:35:56.293Z,19.20
2023-05-14T08:38:42.663Z,19.20
2023-05-14T08:41:28.549Z,19.20
2023-05-14T08:44:19.864Z,19.20
2023-05-14T08:47:24.979Z,19.30
2023-05-14T08:50:11.915Z,19.30
2023-05-14T08:53:01.372Z,19.40
2023-05-14T08:55:55.004Z,19.30
2023-05-14T08:58:41.284Z,19.30
2023-05-14T09:01:29.611Z,19.20
2023-05-14T09:04:29.695Z,19.10
2023-05-14T09:07:16.974Z,19.10
2023-05-14T09:10:12.181Z,19.10
2023-05-14T09:13:13.943Z,19.10
2023-05-14T09:16:01.515Z,19.20
2023-05-14T09:18:54.587Z,19.20
2023-05-14T09:22:33.719Z,19.20
2023-05-14T09:25:21.068Z,19.30
2023-05-14T09:28:12.810Z,19.40
2023-05-14T09:30:59.756Z,19.40
2023-05-14T09:33:55.879Z,19.50
2023-05-14T09:36:49.542Z,19.60
2023-05-14T09:39:39.034Z,19.60
2023-05-14T09:42:25.098Z,19.60
2023-05-14T09:45:20.237Z,19.60
2023-05-14T09:48:11.297Z,19.60
2023-05-14T09:50:57.585Z,19.60
2023-05-14T09:53:47.767Z,19.60
2023-05-14T09:56:35.650Z,19.60
2023-05-14T09:59:27.185Z,19.60
2023-05-14T10:02:41.634Z,19.50
2023-05-14T10:05:32.140Z,19.60
2023-05-14T10:08:35.444Z,19.60
2023-05-14T10:11:26.010Z,19.60
2023-05-14T10:14:27.319Z,19.60
2023-05-14T10:17:18.591Z,19.60
2023-05-14T10:20:09.614Z,19.60
2023-05-14T10:22:56.655Z,19.50
2023-05-14T10:25:43.083Z,19.50
2023-05-14T10:28:29.556Z,19.60
2023-05-14T10:31:15.903Z,19.70
2023-05-14T10:34:02.478Z,19.70
2023-05-14T10:36:49.008Z,19.70
2023-05-14T10:39:46.945Z,19.70
2023-05-14T10:42:43.602Z,19.80
2023-05-14T10:45:30.828Z,19.80
2023-05-14T10:48:17.687Z,19.90
2023-05-14T10:51:05.291Z,20.00
2023-05-14T10:54:02.074Z,20.00
2023-05-14T10:56:50.868Z,20.10
2023-05-14T10:59:46.116Z,20.20
2023-05-14T11:02:44.918Z,20.20
2023-05-14T11:05:37.853Z,20.30
2023-05-14T11:08:26.484Z,20.30
2023-05-14T11:11:13.270Z,20.30
2023-05-14T11:13:59.476Z,20.30
2023-05-14T11:16:50.176Z,20.30
2023-05-14T11:19:36.959Z,20.40
2023-05-14T11:22:24.131Z,20.50
2023-05-14T11:25:15.013Z,20.50
2023-05-14T11:28:03.400Z,20.50
2023-05-14T11:31:05.297Z,20.50
2023-05-14T11:33:58.856Z,20.50
2023-05-14T11:36:48.950Z,20.50
2023-05-14T11:39:38.118Z,20.60
2023-05-14T11:42:24.925Z,20.60
2023-05-14T11:45:27.656Z,20.70
2023-05-14T11:48:31.731Z,20.80
2023-05-14T11:51:29.576Z,20.90
2023-05-14T11:54:15.878Z,20.90
2023-05-14T11:57:19.746Z,20.90
2023-05-14T12:00:44.027Z,21.00
2023-05-14T12:05:02.899Z,21.00
2023-05-14T12:07:59.019Z,21.00
2023-05-14T12:11:17.489Z,21.00
2023-05-14T12:14:23.550Z,21.10
2023-05-14T12:17:27.970Z,21.20
2023-05-14T12:20:14.106Z,21.30
2023-05-14T12:22:59.853Z,21.40
2023-05-14T12:25:52.664Z,21.50
2023-05-14T12:28:43.706Z,21.50
2023-05-14T12:31:35.186Z,21.50
2023-05-14T12:34:21.268Z,21.60
2023-05-14T12:37:07.799Z,21.50
2023-05-14T12:39:54.753Z,21.50
2023-05-14T12:42:42.951Z,21.50
2023-05-14T12:45:30.485Z,21.50
2023-05-14T12:48:18.816Z,21.60
2023-05-14T12:51:04.755Z,21.60
2023-05-14T12:53:51.782Z,21.70
2023-05-14T12:56:40.294Z,21.70
2023-05-14T12:59:26.266Z,21.70
2023-05-14T13:02:12.142Z,21.80
2023-05-14T13:04:57.725Z,21.80
2023-05-14T13:07:43.404Z,21.90
2023-05-14T13:10:30.184Z,21.90
2023-05-14T13:13:16.757Z,22.00
2023-05-14T13:16:07.889Z,22.00
2023-05-14T13:18:54.229Z,22.00
2023-05-14T13:21:40.210Z,22.00
2023-05-14T13:24:26.391Z,22.00
2023-05-14T13:27:14.925Z,22.00
2023-05-14T13:30:19.118Z,22.00
2023-05-14T13:33:05.562Z,22.00
2023-05-14T13:35:53.861Z,22.00
2023-05-14T13:38:40.283Z,22.00
2023-05-14T13:41:26.495Z,21.90
2023-05-14T13:44:12.243Z,21.90
2023-05-14T13:47:00.646Z,21.80
2023-05-14T13:49:46.239Z,21.80
2023-05-14T13:52:33.690Z,21.80
2023-05-14T13:55:19.982Z,21.80
2023-05-14T13:58:09.929Z,21.80
2023-05-14T14:00:56.621Z,21.80
2023-05-14T14:03:42.568Z,21.70
2023-05-14T14:06:34.733Z,21.60
2023-05-14T14:09:20.310Z,21.60
2023-05-14T14:12:11.082Z,21.60
2023-05-14T14:14:57.098Z,21.50
2023-05-14T14:17:43.197Z,21.50
2023-05-14T14:20:29.230Z,21.40
2023-05-14T14:23:28.485Z,21.30
2023-05-14T14:26:15.353Z,21.20
2023-05-14T14:29:02.004Z,21.20
2023-05-14T14:31:48.508Z,21.10
2023-05-14T14:34:34.607Z,21.10
2023-05-14T14:37:21.274Z,21.00
2023-05-14T14:40:10.739Z,21.00
2023-05-14T14:42:56.615Z,20.90
2023-05-14T14:45:42.905Z,20.90
2023-05-14T14:48:37.851Z,20.80
2023-05-14T14:51:23.835Z,20.80
2023-05-14T14:54:09.441Z,20.80
2023-05-14T14:56:55.082Z,20.80
2023-05-14T14:59:41.565Z,20.70
2023-05-14T15:02:27.680Z,20.70
2023-05-14T15:05:13.796Z,20.70
2023-05-14T15:07:59.656Z,20.60
2023-05-14T15:10:46.845Z,20.60
2023-05-14T15:13:33.387Z,20.60
2023-05-14T15:16:19.166Z,20.60
2023-05-14T15:19:05.278Z,20.50
2023-05-14T15:21:51.674Z,20.50
2023-05-14T15:24:37.869Z,20.50
2023-05-14T15:27:24.153Z,20.40
2023-05-14T15:30:12.062Z,20.40
2023-05-14T15:32:57.920Z,20.40
2023-05-14T15:35:44.003Z,20.30
2023-05-14T15:38:30.239Z,20.20
2023-05-14T15:41:16.261Z,20.20
2023-05-14T15:44:02.290Z,20.10
2023-05-14T15:46:49.310Z,20.10
2023-05-14T15:49:35.439Z,20.10
2023-05-14T15:52:23.727Z,20.00
2023-05-14T15:55:11.113Z,19.90
2023-05-14T15:57:57.491Z,19.90
2023-05-14T16:00:44.483Z,19.90
2023-05-14T16:03:31.072Z,20.00
2023-05-14T16:06:17.774Z,20.00
2023-05-14T16:09:04.974Z,20.00
2023-05-14T16:11:51.495Z,20.10
2023-05-14T16:14:38.305Z,20.10
2023-05-14T16:17:26.570Z,20.10
2023-05-14T16:20:12.920Z,20.20
2023-05-14T16:22:58.627Z,20.20
2023-05-14T16:25:44.139Z,20.20
2023-05-14T16:28:29.814Z,20.20
2023-05-14T16:31:15.867Z,20.20
2023-05-14T16:34:01.882Z,20.20
2023-05-14T16:36:48.258Z,20.30
2023-05-14T16:39:34.138Z,20.30
2023-05-14T16:42:21.414Z,20.30
2023-05-14T16:45:08.602Z,20.40
2023-05-14T16:47:54.482Z,20.40
2023-05-14T16:50:41.102Z,20.40
2023-05-14T16:53:28.838Z,20.50
2023-05-14T16:56:15.030Z,20.50
2023-05-14T16:59:01.000Z,20.50
2023-05-14T17:01:48.853Z,20.50
2023-05-14T17:04:38.940Z,20.50
2023-05-14T17:07:25.129Z,20.50
2023-05-14T17:10:12.166Z,20.50
2023-05-14T17:12:58.138Z,20.50
2023-05-14T17:15:44.446Z,20.50
2023-05-14T17:18:30.743Z,20.50
2023-05-14T17:21:17.736Z,20.50
2023-05-14T17:24:05.518Z,20.50
2023-05-14T17:26:51.652Z,20.60
2023-05-14T17:29:37.683Z,20.60
2023-05-14T17:32:26.220Z,20.60
2023-05-14T17:35:12.074Z,20.50
2023-05-14T17:37:59.963Z,20.50
2023-05-14T17:40:46.650Z,20.40
2023-05-14T17:43:35.210Z,20.40
2023-05-14T17:46:21.618Z,20.30
2023-05-14T17:49:07.446Z,20.20
2023-05-14T17:52:00.854Z,20.20
2023-05-14T17:54:46.641Z,20.10
2023-05-14T17:57:35.217Z,20.10
2023-05-14T18:00:23.630Z,20.10
2023-05-14T18:03:09.450Z,20.00
2023-05-14T18:05:55.300Z,20.00
2023-05-14T18:08:41.119Z,20.00
2023-05-14T18:11:33.006Z,20.00
2023-05-14T18:14:19.242Z,20.00
2023-05-14T18:17:06.479Z,20.10
2023-05-14T18:19:53.441Z,20.10
2023-05-14T18:22:39.733Z,20.00
2023-05-14T18:25:26.479Z,20.00
2023-05-14T18:28:12.759Z,20.00
2023-05-14T18:30:58.617Z,20.10
2023-05-14T18:33:44.511Z,20.10
2023-05-14T18:36:30.455Z,20.10
2023-05-14T18:39:16.451Z,20.10
2023-05-14T18:42:03.246Z,20.10
2023-05-14T18:44:49.324Z,20.10
2023-05-14T18:47:35.921Z,20.00
2023-05-14T18:50:22.088Z,20.00
2023-05-14T18:53:08.606Z,20.00
2023-05-14T18:55:54.958Z,19.90
2023-05-14T18:58:43.183Z,19.90
2023-05-14T19:01:29.906Z,19.80
2023-05-14T19:04:18.758Z,19.80
2023-05-14T19:07:06.579Z,19.80
2023-05-14T19:09:53.586Z,19.70
2023-05-14T19:12:42.794Z,19.60
2023-05-14T19:15:28.630Z,19.60
2023-05-14T19:18:14.503Z,19.50
2023-05-14T19:21:00.668Z,19.50
2023-05-14T19:23:48.151Z,19.50
2023-05-14T19:26:34.837Z,19.50
2023-05-14T19:29:21.908Z,19.40
2023-05-14T19:32:09.271Z,19.40
2023-05-14T19:34:55.573Z,19.40
2023-05-14T19:37:43.650Z,19.40
2023-05-14T19:40:29.394Z,19.30
2023-05-14T19:43:15.856Z,19.30
2023-05-14T19:46:02.762Z,19.30
2023-05-14T19:48:49.309Z,19.30
2023-05-14T19:51:35.004Z,19.20
2023-05-14T19:54:20.645Z,19.20
2023-05-14T19:57:06.777Z,19.10
2023-05-14T19:59:52.988Z,19.10
2023-05-14T20:02:41.981Z,19.10
2023-05-14T20:05:28.437Z,19.10
2023-05-14T20:08:14.449Z,19.10
2023-05-14T20:11:00.174Z,19.10
2023-05-14T20:13:46.515Z,19.00
2023-05-14T20:16:32.682Z,19.00
2023-05-14T20:19:20.127Z,19.00
2023-05-14T20:22:06.682Z,19.00
2023-05-14T20:24:52.885Z,19.00
2023-05-14T20:27:41.273Z,19.00
2023-05-14T20:30:28.470Z,19.00
2023-05-14T20:33:16.066Z,19.00
2023-05-14T20:36:04.488Z,19.00
2023-05-14T20:38:50.428Z,19.00
2023-05-14T20:41:36.089Z,19.10
2023-05-14T20:44:22.163Z,19.00
2023-05-14T20:47:08.472Z,19.10
2023-05-14T20:49:54.974Z,19.10
2023-05-14T20:52:40.753Z,19.00
2023-05-14T20:55:27.291Z,19.00
2023-05-14T20:58:13.335Z,19.00
2023-05-14T21:01:00.408Z,19.00
2023-05-14T21:03:46.502Z,19.00
2023-05-14T21:06:34.999Z,19.00
2023-05-14T21:09:27.264Z,19.00
2023-05-14T21:12:13.537Z,19.00
2023-05-14T21:14:59.271Z,19.00
2023-05-14T21:17:45.012Z,19.00
2023-05-14T21:20:30.864Z,19.00
2023-05-14T21:23:16.423Z,19.00
2023-05-14T21:26:02.392Z,19.00
2023-05-14T21:28:49.274Z,18.90
2023-05-14T21:31:38.000Z,18.90
2023-05-14T21:34:24.053Z,18.90
2023-05-14T21:37:10.131Z,18.80
2023-05-14T21:39:55.805Z,18.80
2023-05-14T21:42:41.598Z,18.80
2023-05-14T21:45:27.785Z,18.80
2023-05-14T21:48:13.903Z,18.80
2023-05-14T21:50:59.827Z,18.80
2023-05-14T21:53:46.241Z,18.90
2023-05-14T21:56:32.568Z,18.90
2023-05-14T21:59:18.463Z,18.90
2023-05-14T22:02:07.429Z,18.90
2023-05-14T22:04:53.939Z,18.90
2023-05-14T22:07:39.704Z,18.90
2023-05-14T22:10:25.451Z,18.90
2023-05-14T22:13:12.018Z,18.90
2023-05-14T22:16:11.680Z,18.90
2023-05-14T22:19:00.088Z,18.80
2023-05-14T22:21:46.389Z,18.80
2023-05-14T22:24:32.458Z,18.80
2023-05-14T22:27:18.652Z,18.80
2023-05-14T22:30:05.360Z,18.80
2023-05-14T22:32:51.078Z,18.80
2023-05-14T22:35:37.111Z,18.90
2023-05-14T22:38:22.662Z,18.90
2023-05-14T22:41:08.433Z,18.90
2023-05-14T22:43:54.712Z,18.90
2023-05-14T22:46:40.910Z,18.90
2023-05-14T22:49:26.908Z,18.90
2023-05-14T22:52:12.279Z,18.90
2023-05-14T22:54:59.181Z,18.90
2023-05-14T22:57:45.108Z,18.90
2023-05-14T23:00:30.524Z,18.90
2023-05-14T23:03:16.307Z,18.90
2023-05-14T23:06:02.242Z,18.90
2023-05-14T23:08:48.514Z,18.90
2023-05-14T23:11:35.747Z,18.90
2023-05-14T23:14:21.666Z,18.90
2023-05-14T23:17:07.248Z,18.90
2023-05-14T23:19:53.507Z,18.90
2023-05-14T23:22:40.830Z,18.90
2023-05-14T23:25:26.678Z,18.90
2023-05-14T23:28:14.972Z,18.90
2023-05-14T23:31:00.888Z,18.90
2023-05-14T23:33:46.946Z,18.90
2023-05-14T23:36:33.087Z,18.90
2023-05-14T23:39:18.893Z,18.80
2023-05-14T23:42:04.935Z,18.80
2023-05-14T23:44:50.570Z,18.80
2023-05-14T23:47:36.559Z,18.80
2023-05-14T23:50:22.594Z,18.90
2023-05-14T23:53:10.931Z,18.80
2023-05-14T23:55:56.670Z,18.80
2023-05-14T23:58:42.786Z,18.80
